OTBD Airport Information

Runway Information
Runway 15 Length 15000 ft width 151 ft
Elevation 35 ft Threshold 2460 ft Heading 158
Runway 33 Length 15000 ft Width 151 ft
Elevation 25 ft Threshold 0 ft Heading 338
Airport Frequencies
Type APP Name APP Frequency 121.1 MHZ
Type ATIS Name ATIS Frequency 126.45 MHZ
Type GND Name GND Frequency 118.275 MHZ
Type OPS Name KINGFISH N Frequency 139.5 MHZ
Type TWR Name TWR Frequency 118.9 MHZ
Airport Navaids
Type VOR-DME Name Doha Frequency 112400 KHZ
Type NDB Name Wk Frequency 323 KHZ
Airport Weather Information & NOTAM
ADDS - METARS form results

(2149 UTC 27 January 2020)
Data provider http://aviationweather.gov/metar/data/
 
METAR text: OTBD 272130Z 30006KT CAVOK 14/06 Q1022 NOSIG
Conditions at: OTBD (DOHA INTL AIRPOR, QA) observed 2130 UTC 27 January 2020
Temperature: 14.0°C (57°F)
Dewpoint: 6.0°C (43°F) [RH = 58%]
Pressure (altimeter): 30.18 inches Hg (1022.0 mb)
Winds: from the WNW (300 degrees) at 7 MPH (6 knots; 3.1 m/s)
Visibility: 6 or more miles (10+ km)
Ceiling: ceiling and visibility are OK
Clouds: unknown
Weather: no significant weather observed at this time

METAR text: OTBD 272100Z 31007KT 280V340 CAVOK 15/06 Q1022 NOSIG
Conditions at: OTBD (DOHA INTL AIRPOR, QA) observed 2100 UTC 27 January 2020
Temperature: 15.0°C (59°F)
Dewpoint: 6.0°C (43°F) [RH = 55%]
Pressure (altimeter): 30.18 inches Hg (1022.0 mb)
Winds: from the NW (310 degrees) at 8 MPH (7 knots; 3.6 m/s)
Visibility: 6 or more miles (10+ km)
Ceiling: ceiling and visibility are OK
Clouds: unknown
Weather: no significant weather observed at this time

Forecast for: OTBD (DOHA INTL AIRPOR, QA)
Text: TAF OTBD 271701Z 2718/2824 30009KT CAVOK
Forecast period: 1800 UTC 27 January 2020 to 0000 UTC 29 January 2020
Forecast type: FROM: standard forecast or significant change
Winds: from the WNW (300 degrees) at 10 MPH (9 knots; 4.6 m/s)
Visibility: 6 or more miles 10+ km)
Ceiling: unknown
Clouds: missing
Weather: NSW  (no significant weather)